Time;durP1;ratioP1;P1;durP2;ratioP2;P2;SDS_P1;SDS_P2;PMS_P1;PMS_P2;Temp;Humidity;BMP_temperature;BMP_pressure;BME280_temperature;BME280_humidity;BME280_pressure;Samples;Min_cycle;Max_cycle;Signal;HPM_P1;HPM_P2
2021/07/03 20:43:43;;;;;;;7.60;6.93;;;;;;;;;;4961021;28;65110;-59
2021/07/03 20:47:47;;;;;;;6.85;6.25;;;;;;;25.58;55.28;97665.63;4877321;27;57115;-59
2021/07/03 20:50:17;;;;;;;6.97;6.38;;;;;;;25.66;54.73;97667.47;4952213;28;20235;-60
2021/07/03 20:52:43;;;;;;;6.68;6.18;;;;;;;25.54;54.97;97674.94;4986532;28;20339;-56
2021/07/03 20:55:09;;;;;;;7.95;7.15;;;;;;;25.59;55.21;97677.97;4984819;28;20200;-59
2021/07/03 20:57:35;;;;;;;7.35;6.75;;;;;;;25.86;54.11;97677.78;4965596;28;20212;-61
2021/07/03 21:01:39;;;;;;;7.60;7.00;;;;;;;25.96;53.66;97682.00;5036197;27;20593;-60
2021/07/03 21:07:18;;;;;;;183.63;28.50;;;;;;;22.45;66.41;97674.16;5032757;27;20448;-66
2021/07/03 21:09:43;;;;;;;162.50;22.53;;;;;;;21.44;70.24;97682.50;5002354;28;20766;-68
2021/07/03 21:12:12;;;;;;;152.33;22.83;;;;;;;20.96;72.87;97680.63;4994873;28;20503;-68
2021/07/03 21:14:37;;;;;;;124.00;20.27;;;;;;;20.97;72.74;97671.69;4997880;28;20848;-68
2021/07/03 21:17:04;;;;;;;265.58;77.43;;;;;;;20.77;74.56;97679.59;4983920;28;20433;-69
2021/07/03 21:19:29;;;;;;;228.15;26.13;;;;;;;20.76;74.60;97685.03;4985806;28;20263;-66
2021/07/03 21:21:54;;;;;;;196.53;24.10;;;;;;;21.11;72.80;97675.78;4995140;28;20568;-66
2021/07/03 21:24:22;;;;;;;382.53;340.47;;;;;;;20.93;73.71;97678.25;4996669;28;20455;-67
2021/07/03 21:26:48;;;;;;;235.07;29.13;;;;;;;20.69;75.06;97681.25;4993087;28;20523;-67
2021/07/03 21:29:13;;;;;;;208.80;25.70;;;;;;;20.60;75.32;97673.16;4993818;28;20962;-67
2021/07/03 21:31:38;;;;;;;246.83;135.13;;;;;;;20.65;74.85;97682.50;4994849;28;20502;-67
2021/07/03 21:34:04;;;;;;;221.43;28.17;;;;;;;20.77;73.90;97678.78;4993746;28;20422;-67
2021/07/03 21:36:29;;;;;;;606.67;556.17;;;;;;;20.89;72.54;97675.03;4997001;28;20895;-67
2021/07/03 21:38:54;;;;;;;608.83;550.40;;;;;;;20.80;72.80;97670.53;4996925;28;20405;-68
2021/07/03 21:41:20;;;;;;;291.88;189.43;;;;;;;20.83;72.48;97678.22;4998980;28;20680;-69
2021/07/03 21:43:45;;;;;;;172.23;32.63;;;;;;;20.54;74.03;97672.78;5002225;28;20427;-66
2021/07/03 21:46:11;;;;;;;149.77;21.97;;;;;;;20.57;73.82;97676.03;5034520;28;20336;-66
2021/07/03 21:48:36;;;;;;;185.20;23.25;;;;;;;20.55;74.01;97682.44;5034646;28;20416;-66
2021/07/03 21:51:02;;;;;;;304.92;185.40;;;;;;;20.49;74.48;97678.47;5034565;28;20222;-66
2021/07/03 21:53:27;;;;;;;180.88;35.08;;;;;;;20.40;74.96;97676.63;5035560;28;20216;-66
2021/07/03 21:55:52;;;;;;;215.03;40.10;;;;;;;20.43;74.92;97676.38;5033128;28;20428;-66
2021/07/03 21:58:18;;;;;;;555.40;499.52;;;;;;;20.37;75.55;97680.38;5034194;28;20539;-67
2021/07/03 22:00:51;;;;;;;555.37;500.30;;;;;;;20.15;76.19;97670.81;5033704;28;20436;-67
2021/07/03 22:03:19;;;;;;;632.00;562.08;;;;;;;20.21;75.75;97678.22;5033416;28;20781;-67
2021/07/03 22:05:49;;;;;;;525.67;471.13;;;;;;;20.20;76.23;97675.72;5033096;28;20499;-67
2021/07/03 22:08:17;;;;;;;552.50;499.50;;;;;;;20.12;76.81;97680.81;5033099;28;20423;-67
2021/07/03 22:10:44;;;;;;;546.60;490.70;;;;;;;20.36;76.12;97675.22;5032908;28;21153;-67
2021/07/03 22:13:11;;;;;;;450.65;399.88;;;;;;;20.53;74.05;97669.31;5038992;28;20895;-67
2021/07/03 22:15:36;;;;;;;434.25;345.50;;;;;;;20.46;74.71;97664.66;5033574;28;20412;-67
2021/07/03 22:18:03;;;;;;;483.73;297.10;;;;;;;20.33;76.02;97670.22;5024051;28;20775;-68
2021/07/03 22:20:29;;;;;;;452.98;339.02;;;;;;;20.20;76.68;97660.66;5019873;28;21014;-68
2021/07/03 22:22:54;;;;;;;465.23;325.97;;;;;;;20.19;77.05;97674.03;5020174;28;20417;-68
2021/07/03 22:25:22;;;;;;;377.02;192.60;;;;;;;19.99;77.51;97668.63;5021130;28;20210;-68
2021/07/03 22:27:51;;;;;;;389.27;181.18;;;;;;;20.08;77.18;97671.47;5021718;28;20213;-66
2021/07/03 22:30:18;;;;;;;375.70;171.40;;;;;;;19.95;76.53;97666.38;5020686;28;20262;-67
2021/07/03 22:32:44;;;;;;;426.10;179.65;;;;;;;20.19;75.54;97658.97;5027141;28;20195;-67
2021/07/03 22:35:10;;;;;;;431.98;175.15;;;;;;;20.17;75.42;97666.22;5020758;28;20193;-67
2021/07/03 22:37:37;;;;;;;427.00;172.63;;;;;;;20.15;75.44;97662.84;5021481;28;20406;-66
2021/07/03 22:40:04;;;;;;;368.88;165.40;;;;;;;20.12;75.17;97660.47;5020793;28;20766;-65
2021/07/03 22:42:30;;;;;;;416.65;168.13;;;;;;;20.12;74.74;97663.13;5020711;28;20195;-67
2021/07/03 22:47:04;;;;;;;387.85;170.25;;;;;;;20.06;75.48;97653.06;5080587;27;20590;-66
2021/07/03 22:49:29;;;;;;;;;;;;;;;20.08;75.58;97651.13;5059611;28;20037;-66
2021/07/03 22:51:54;;;;;;;;;;;;;;;19.65;77.46;97654.72;5061089;28;19925;-66
2021/07/03 22:54:22;;;;;;;;;;;;;;;19.92;76.01;97656.88;5065475;28;20346;-65
2021/07/03 22:56:47;;;;;;;;;;;;;;;20.00;75.29;97653.59;5064711;28;19970;-66
2021/07/03 22:59:12;;;;;;;;;;;;;;;20.00;74.96;97653.59;5067626;28;19916;-65
2021/07/03 23:01:37;;;;;;;;;;;;;;;20.20;73.71;97650.06;5064152;28;19916;-66
2021/07/03 23:04:03;;;;;;;;;;;;;;;20.22;73.65;97642.84;5066147;28;19974;-66
2021/07/03 23:06:30;;;;;;;;;;;;;;;20.36;73.61;97648.72;5065658;28;20027;-66
2021/07/03 23:08:55;;;;;;;;;;;;;;;20.46;74.00;97648.75;5063963;28;20028;-65
2021/07/03 23:11:21;;;;;;;;;;;;;;;20.62;73.00;97643.00;5064686;28;20027;-65
2021/07/03 23:13:46;;;;;;;;;;;;;;;20.09;74.12;97658.09;5066163;28;20082;-65
2021/07/03 23:16:11;;;;;;;;;;;;;;;19.27;77.52;97661.38;5064732;28;19916;-65
2021/07/03 23:18:36;;;;;;;;;;;;;;;20.37;73.71;97661.03;5064074;28;19939;-65
2021/07/03 23:21:01;;;;;;;;;;;;;;;20.19;73.77;97655.50;5064546;28;19921;-65
2021/07/03 23:23:27;;;;;;;;;;;;;;;20.38;72.61;97660.03;5063603;28;20372;-65
2021/07/03 23:25:52;;;;;;;;;;;;;;;20.21;73.33;97654.38;5064120;28;19927;-65
2021/07/03 23:28:21;;;;;;;;;;;;;;;19.95;75.59;97655.78;5067262;28;20416;-65
2021/07/03 23:30:46;;;;;;;;;;;;;;;20.06;74.69;97655.69;5060534;28;20029;-65
2021/07/03 23:33:15;;;;;;;;;;;;;;;19.88;75.95;97644.03;5067625;28;19927;-65
2021/07/03 23:35:40;;;;;;;;;;;;;;;20.00;76.18;97648.28;5079720;28;19995;-65
2021/07/03 23:38:06;;;;;;;;;;;;;;;19.61;77.44;97648.00;5065716;28;20062;-65
2021/07/03 23:40:32;;;;;;;;;;;;;;;19.50;77.46;97640.13;5064781;28;20024;-65
2021/07/03 23:42:57;;;;;;;;;;;;;;;19.94;74.93;97646.16;5065129;28;19961;-65
2021/07/03 23:45:23;;;;;;;;;;;;;;;19.88;75.12;97644.03;5064044;28;19961;-67
2021/07/03 23:47:49;;;;;;;;;;;;;;;19.94;74.46;97647.00;5065510;28;20495;-66
2021/07/03 23:50:16;;;;;;;;;;;;;;;20.01;74.51;97645.50;5065133;28;19962;-65
2021/07/03 23:52:41;;;;;;;;;;;;;;;19.45;76.38;97644.00;5063213;28;19919;-65
2021/07/03 23:55:07;;;;;;;;;;;;;;;19.26;76.91;97649.97;5064137;28;19908;-66
2021/07/03 23:57:34;;;;;;;;;;;;;;;19.59;75.19;97649.94;5054172;28;19913;-66
2021/07/03 23:59:59;;;;;;;;;;;;;;;20.09;74.12;97652.81;5048915;28;19994;-66
